createdAt,value
2019-02-24T00:00:41.145Z,2.00
2019-02-24T00:03:08.301Z,1.90
2019-02-24T00:05:35.923Z,1.70
2019-02-24T00:08:03.169Z,1.80
2019-02-24T00:10:30.102Z,1.90
2019-02-24T00:12:56.640Z,2.00
2019-02-24T00:15:23.398Z,2.00
2019-02-24T00:17:50.146Z,1.80
2019-02-24T00:20:16.769Z,1.80
2019-02-24T00:22:45.023Z,1.80
2019-02-24T00:25:12.448Z,1.70
2019-02-24T00:27:38.993Z,1.70
2019-02-24T00:30:06.435Z,1.70
2019-02-24T00:32:34.525Z,1.60
2019-02-24T00:35:03.208Z,1.70
2019-02-24T00:37:29.748Z,1.70
2019-02-24T00:39:56.376Z,1.60
2019-02-24T00:42:23.019Z,1.50
2019-02-24T00:44:49.652Z,1.60
2019-02-24T00:47:16.343Z,1.50
2019-02-24T00:49:44.064Z,1.50
2019-02-24T00:52:10.595Z,1.60
2019-02-24T00:54:38.824Z,1.50
2019-02-24T00:57:05.472Z,1.50
2019-02-24T00:59:32.194Z,1.50
2019-02-24T01:01:59.938Z,1.60
2019-02-24T01:04:26.748Z,1.60
2019-02-24T01:06:53.300Z,1.50
2019-02-24T01:09:19.836Z,1.50
2019-02-24T01:11:46.475Z,1.40
2019-02-24T01:14:13.127Z,1.40
2019-02-24T01:16:40.062Z,1.30
2019-02-24T01:19:06.709Z,1.30
2019-02-24T01:21:33.326Z,1.30
2019-02-24T01:23:59.981Z,1.30
2019-02-24T01:26:26.909Z,1.40
2019-02-24T01:28:53.573Z,1.40
2019-02-24T01:31:20.204Z,1.20
2019-02-24T01:33:46.850Z,1.30
2019-02-24T01:36:13.476Z,1.30
2019-02-24T01:38:40.120Z,1.30
2019-02-24T01:41:06.753Z,1.30
2019-02-24T01:43:33.796Z,1.20
2019-02-24T01:46:01.316Z,1.20
2019-02-24T01:48:27.981Z,1.20
2019-02-24T01:50:54.600Z,1.20
2019-02-24T01:53:22.853Z,1.10
2019-02-24T01:55:49.485Z,1.10
2019-02-24T01:58:16.133Z,1.20
2019-02-24T02:00:42.760Z,1.00
2019-02-24T02:03:09.316Z,1.10
2019-02-24T02:05:35.937Z,1.10
2019-02-24T02:08:02.592Z,1.10
2019-02-24T02:10:29.322Z,1.10
2019-02-24T02:12:57.359Z,1.10
2019-02-24T02:15:24.120Z,1.10
2019-02-24T02:17:51.780Z,1.00
2019-02-24T02:20:20.006Z,0.80
2019-02-24T02:22:46.758Z,0.70
2019-02-24T02:25:14.984Z,0.70
2019-02-24T02:27:43.240Z,0.70
2019-02-24T02:30:11.077Z,0.50
2019-02-24T02:32:37.611Z,0.50
2019-02-24T02:35:06.635Z,0.50
2019-02-24T02:37:33.251Z,0.50
2019-02-24T02:39:59.893Z,0.60
2019-02-24T02:42:26.752Z,0.50
2019-02-24T02:44:53.296Z,0.50
2019-02-24T02:47:19.911Z,0.50
2019-02-24T02:49:46.482Z,0.50
2019-02-24T02:52:13.103Z,0.40
2019-02-24T02:54:39.720Z,0.60
2019-02-24T02:57:06.344Z,0.60
2019-02-24T02:59:33.105Z,0.50
2019-02-24T03:01:59.635Z,0.40
2019-02-24T03:04:26.200Z,0.40
2019-02-24T03:06:57.525Z,0.60
2019-02-24T03:09:24.201Z,0.80
2019-02-24T03:11:51.732Z,0.60
2019-02-24T03:14:19.997Z,0.60
2019-02-24T03:16:46.624Z,0.70
2019-02-24T03:19:13.286Z,0.90
2019-02-24T03:21:40.200Z,0.70
2019-02-24T03:24:06.856Z,0.70
2019-02-24T03:26:34.489Z,0.80
2019-02-24T03:29:04.100Z,0.70
2019-02-24T03:31:29.674Z,0.70
2019-02-24T03:33:56.335Z,0.60
2019-02-24T03:36:23.655Z,0.50
2019-02-24T03:38:50.316Z,0.50
2019-02-24T03:41:16.838Z,0.60
2019-02-24T03:43:43.487Z,0.50
2019-02-24T03:46:10.009Z,0.40
2019-02-24T03:48:36.662Z,0.30
2019-02-24T03:51:03.175Z,0.40
2019-02-24T03:53:29.982Z,0.50
2019-02-24T03:55:57.650Z,0.70
2019-02-24T03:58:24.620Z,0.60
2019-02-24T04:00:51.277Z,0.50
2019-02-24T04:03:17.995Z,0.40
2019-02-24T04:05:44.656Z,0.40
2019-02-24T04:08:11.232Z,0.50
2019-02-24T04:10:37.833Z,0.60
2019-02-24T04:13:04.346Z,0.50
2019-02-24T04:15:31.126Z,0.50
2019-02-24T04:17:57.754Z,0.40
2019-02-24T04:20:24.404Z,0.40
2019-02-24T04:22:52.664Z,0.20
2019-02-24T04:25:19.309Z,0.20
2019-02-24T04:27:45.923Z,0.10
2019-02-24T04:30:12.684Z,0.20
2019-02-24T04:32:40.909Z,0.30
2019-02-24T04:35:07.661Z,0.20
2019-02-24T04:37:34.585Z,0.20
2019-02-24T04:40:01.348Z,0.10
2019-02-24T04:42:28.071Z,0.20
2019-02-24T04:44:54.735Z,0.20
2019-02-24T04:47:21.353Z,0.20
2019-02-24T04:49:47.986Z,0.20
2019-02-24T04:52:14.804Z,0.30
2019-02-24T04:54:42.356Z,0.30
2019-02-24T04:57:10.594Z,0.20
2019-02-24T04:59:38.138Z,0.10
2019-02-24T05:02:06.367Z,0.20
2019-02-24T05:04:33.016Z,0.20
2019-02-24T05:06:59.543Z,0.20
2019-02-24T05:09:26.202Z,0.10
2019-02-24T05:11:52.809Z,0.10
2019-02-24T05:14:19.488Z,0.10
2019-02-24T05:16:46.118Z,0.10
2019-02-24T05:19:13.774Z,0.00
2019-02-24T05:21:41.432Z,0.10
2019-02-24T05:24:09.649Z,0.20
2019-02-24T05:26:36.400Z,0.10
2019-02-24T05:29:04.627Z,0.10
2019-02-24T05:31:32.893Z,0.10
2019-02-24T05:33:59.738Z,0.10
2019-02-24T05:36:27.988Z,0.10
2019-02-24T05:38:54.663Z,0.10
2019-02-24T05:41:21.272Z,0.10
2019-02-24T05:43:47.817Z,0.00
2019-02-24T05:46:14.442Z,-0.10
2019-02-24T05:48:41.058Z,-0.30
2019-02-24T05:51:07.581Z,-0.30
2019-02-24T05:53:34.355Z,-0.10
2019-02-24T05:56:00.973Z,0.00
2019-02-24T05:58:27.516Z,0.30
2019-02-24T06:00:54.033Z,0.00
2019-02-24T06:03:20.776Z,0.00
2019-02-24T06:05:48.010Z,0.00
2019-02-24T06:08:14.564Z,0.00
2019-02-24T06:10:41.274Z,-0.10
2019-02-24T06:13:09.535Z,0.00
2019-02-24T06:15:36.152Z,0.30
2019-02-24T06:18:03.011Z,0.20
2019-02-24T06:20:30.029Z,0.30
2019-02-24T06:22:56.582Z,0.30
2019-02-24T06:25:24.821Z,0.40
2019-02-24T06:27:53.129Z,0.30
2019-02-24T06:30:19.850Z,0.20
2019-02-24T06:32:48.084Z,0.20
2019-02-24T06:35:14.654Z,0.20
2019-02-24T06:37:41.278Z,0.20
2019-02-24T06:40:07.929Z,0.20
2019-02-24T06:42:34.461Z,0.20
2019-02-24T06:45:01.004Z,0.10
2019-02-24T06:47:27.570Z,0.30
2019-02-24T06:49:54.208Z,0.40
2019-02-24T06:52:22.664Z,0.30
2019-02-24T06:54:49.204Z,0.30
2019-02-24T06:57:15.749Z,0.30
2019-02-24T06:59:42.278Z,0.40
2019-02-24T07:02:08.841Z,0.50
2019-02-24T07:04:35.564Z,0.30
2019-02-24T07:07:02.116Z,0.30
2019-02-24T07:09:28.635Z,0.40
2019-02-24T07:11:56.889Z,0.30
2019-02-24T07:14:23.523Z,0.40
2019-02-24T07:16:50.068Z,0.40
2019-02-24T07:19:16.726Z,0.60
2019-02-24T07:21:43.462Z,0.70
2019-02-24T07:24:10.080Z,0.70
2019-02-24T07:26:36.603Z,0.80
2019-02-24T07:29:03.154Z,0.90
2019-02-24T07:31:29.675Z,0.90
2019-02-24T07:33:56.228Z,0.80
2019-02-24T07:36:22.853Z,0.90
2019-02-24T07:38:49.509Z,1.00
2019-02-24T07:41:16.065Z,1.10
2019-02-24T07:43:42.626Z,1.00
2019-02-24T07:46:09.145Z,1.10
2019-02-24T07:48:35.713Z,1.20
2019-02-24T07:51:02.228Z,1.30
2019-02-24T07:53:29.077Z,1.30
2019-02-24T07:55:55.732Z,1.20
2019-02-24T07:58:22.343Z,1.30
2019-02-24T08:00:49.018Z,1.30
2019-02-24T08:03:15.517Z,1.40
2019-02-24T08:05:42.039Z,1.50
2019-02-24T08:08:16.279Z,1.50
2019-02-24T08:10:37.419Z,1.60
2019-02-24T08:13:03.965Z,1.70
2019-02-24T08:15:30.493Z,1.60
2019-02-24T08:17:56.957Z,1.70
2019-02-24T08:20:23.482Z,1.70
2019-02-24T08:22:50.127Z,1.70
2019-02-24T08:25:17.257Z,1.70
2019-02-24T08:27:43.863Z,1.80
2019-02-24T08:30:11.345Z,2.20
2019-02-24T08:32:38.049Z,2.40
2019-02-24T08:35:06.072Z,2.70
2019-02-24T08:37:32.721Z,2.40
2019-02-24T08:39:59.285Z,2.40
2019-02-24T08:42:25.798Z,2.40
2019-02-24T08:44:52.431Z,2.50
2019-02-24T08:47:19.001Z,2.50
2019-02-24T08:49:45.651Z,2.60
2019-02-24T08:52:12.484Z,2.90
2019-02-24T08:54:39.132Z,3.20
2019-02-24T08:57:05.761Z,3.20
2019-02-24T08:59:32.322Z,3.30
2019-02-24T09:01:58.951Z,3.30
2019-02-24T09:04:25.507Z,3.40
2019-02-24T09:06:51.932Z,3.20
2019-02-24T09:09:18.480Z,3.30
2019-02-24T09:11:45.105Z,3.50
2019-02-24T09:14:12.464Z,3.40
2019-02-24T09:16:39.099Z,3.70
2019-02-24T09:19:05.751Z,3.70
2019-02-24T09:21:33.180Z,3.70
2019-02-24T09:24:01.433Z,3.80
2019-02-24T09:26:28.170Z,3.80
2019-02-24T09:28:55.017Z,4.10
2019-02-24T09:31:21.624Z,4.10
2019-02-24T09:33:49.199Z,4.30
2019-02-24T09:36:15.820Z,4.50
2019-02-24T09:38:42.471Z,4.60
2019-02-24T09:41:08.998Z,4.80
2019-02-24T09:43:35.817Z,4.90
2019-02-24T09:46:02.373Z,5.00
2019-02-24T09:48:28.888Z,5.00
2019-02-24T09:50:55.468Z,5.10
2019-02-24T09:53:22.232Z,5.10
2019-02-24T09:55:49.644Z,5.10
2019-02-24T09:58:16.530Z,5.30
2019-02-24T10:00:43.260Z,5.30
2019-02-24T10:03:09.885Z,5.40
2019-02-24T10:05:36.571Z,5.40
2019-02-24T10:08:03.084Z,5.50
2019-02-24T10:10:29.668Z,5.50
2019-02-24T10:12:56.430Z,5.70
2019-02-24T10:15:23.101Z,5.80
2019-02-24T10:17:49.752Z,5.80
2019-02-24T10:20:16.328Z,5.80
2019-02-24T10:22:42.848Z,6.20
2019-02-24T10:25:09.418Z,6.20
2019-02-24T10:27:36.550Z,6.10
2019-02-24T10:30:11.824Z,6.30
2019-02-24T10:32:38.440Z,6.30
2019-02-24T10:35:06.073Z,6.30
2019-02-24T10:37:32.729Z,6.30
2019-02-24T10:39:59.361Z,6.30
2019-02-24T10:42:25.935Z,6.30
2019-02-24T10:44:52.653Z,6.40
2019-02-24T10:47:19.310Z,6.60
2019-02-24T10:49:45.950Z,6.90
2019-02-24T10:52:12.625Z,7.00
2019-02-24T10:54:40.057Z,7.20
2019-02-24T10:57:09.794Z,7.10
2019-02-24T10:59:36.112Z,7.30
2019-02-24T11:02:02.708Z,7.40
2019-02-24T11:04:29.271Z,7.50
2019-02-24T11:06:55.876Z,7.70
2019-02-24T11:09:22.452Z,7.80
2019-02-24T11:11:48.968Z,7.90
2019-02-24T11:14:15.558Z,8.00
2019-02-24T11:16:42.036Z,7.90
2019-02-24T11:19:08.815Z,8.00
2019-02-24T11:21:35.462Z,7.90
2019-02-24T11:24:01.980Z,8.20
2019-02-24T11:26:28.552Z,8.30
2019-02-24T11:28:55.178Z,8.40
2019-02-24T11:31:21.684Z,8.40
2019-02-24T11:33:48.297Z,8.20
2019-02-24T11:36:16.419Z,8.20
2019-02-24T11:38:44.914Z,8.20
2019-02-24T11:41:11.490Z,8.20
2019-02-24T11:43:38.004Z,8.20
2019-02-24T11:46:04.664Z,8.20
2019-02-24T11:48:32.339Z,8.50
2019-02-24T11:50:59.065Z,8.70
2019-02-24T11:53:25.824Z,8.80
2019-02-24T11:55:52.494Z,8.60
2019-02-24T11:58:19.008Z,8.60
2019-02-24T12:00:45.582Z,8.70
2019-02-24T12:03:12.092Z,8.80
2019-02-24T12:05:38.668Z,9.10
2019-02-24T12:08:05.285Z,9.20
2019-02-24T12:10:32.109Z,9.30
2019-02-24T12:12:59.432Z,9.60
2019-02-24T12:15:26.088Z,9.70
2019-02-24T12:17:52.761Z,9.60
2019-02-24T12:20:19.475Z,9.70
2019-02-24T12:22:46.657Z,9.70
2019-02-24T12:25:13.323Z,9.70
2019-02-24T12:27:40.509Z,9.70
2019-02-24T12:30:11.468Z,9.70
2019-02-24T12:32:38.091Z,9.70
2019-02-24T12:35:06.158Z,9.90
2019-02-24T12:37:32.791Z,10.00
2019-02-24T12:39:59.859Z,10.20
2019-02-24T12:42:28.124Z,10.20
2019-02-24T12:44:54.864Z,10.30
2019-02-24T12:47:21.577Z,10.60
2019-02-24T12:49:49.471Z,10.80
2019-02-24T12:52:16.314Z,11.10
2019-02-24T12:54:43.557Z,11.30
2019-02-24T12:57:10.233Z,11.50
2019-02-24T12:59:36.852Z,11.70
2019-02-24T13:02:05.608Z,12.20
2019-02-24T13:04:32.192Z,12.10
2019-02-24T13:06:58.812Z,12.40
2019-02-24T13:09:25.677Z,12.50
2019-02-24T13:11:52.258Z,12.90
2019-02-24T13:14:18.966Z,13.10
2019-02-24T13:16:45.590Z,13.30
2019-02-24T13:19:12.264Z,13.80
2019-02-24T13:21:39.070Z,13.80
2019-02-24T13:24:05.676Z,14.10
2019-02-24T13:26:32.306Z,14.20
2019-02-24T13:28:58.883Z,14.70
2019-02-24T13:31:25.553Z,14.80
2019-02-24T13:33:52.288Z,14.90
2019-02-24T13:36:18.969Z,15.30
2019-02-24T13:38:45.605Z,15.50
2019-02-24T13:41:12.274Z,15.90
2019-02-24T13:43:39.801Z,16.10
2019-02-24T13:46:06.474Z,16.40
2019-02-24T13:48:33.088Z,16.50
2019-02-24T13:50:59.818Z,16.80
2019-02-24T13:53:26.535Z,17.20
2019-02-24T13:55:53.285Z,17.40
2019-02-24T13:58:19.988Z,17.50
2019-02-24T14:00:46.668Z,17.60
2019-02-24T14:03:13.292Z,17.60
2019-02-24T14:05:40.053Z,18.00
2019-02-24T14:08:06.729Z,17.90
2019-02-24T14:10:33.443Z,17.70
2019-02-24T14:13:00.167Z,17.70
2019-02-24T14:15:28.389Z,18.30
2019-02-24T14:17:56.777Z,18.70
2019-02-24T14:20:24.397Z,18.60
2019-02-24T14:22:51.964Z,19.00
2019-02-24T14:25:19.436Z,19.00
2019-02-24T14:27:46.967Z,18.80
2019-02-24T14:30:16.052Z,18.40
2019-02-24T14:32:44.548Z,18.50
2019-02-24T14:35:13.903Z,18.80
2019-02-24T14:37:40.618Z,18.60
2019-02-24T14:40:08.582Z,18.60
2019-02-24T14:42:36.814Z,19.00
2019-02-24T14:45:15.501Z,19.50
2019-02-24T14:47:42.253Z,19.00
2019-02-24T14:50:09.951Z,18.70
2019-02-24T14:52:36.534Z,18.80
2019-02-24T14:55:06.130Z,18.80
2019-02-24T14:57:32.746Z,18.60
2019-02-24T15:00:00.429Z,18.90
2019-02-24T15:02:27.564Z,19.30
2019-02-24T15:04:54.209Z,19.30
2019-02-24T15:07:21.338Z,19.00
2019-02-24T15:09:48.004Z,18.90
2019-02-24T15:12:14.584Z,18.80
2019-02-24T15:14:41.153Z,19.30
2019-02-24T15:17:07.775Z,18.90
2019-02-24T15:19:34.421Z,18.60
2019-02-24T15:22:01.094Z,18.50
2019-02-24T15:24:28.068Z,19.30
2019-02-24T15:26:54.717Z,19.30
2019-02-24T15:29:22.379Z,19.40
2019-02-24T15:31:50.744Z,18.70
2019-02-24T15:34:17.618Z,18.70
2019-02-24T15:36:44.367Z,18.70
2019-02-24T15:39:11.040Z,18.60
2019-02-24T15:41:37.677Z,18.30
2019-02-24T15:44:04.368Z,18.20
2019-02-24T15:46:31.397Z,18.10
2019-02-24T15:48:58.150Z,18.00
2019-02-24T15:51:24.769Z,18.30
2019-02-24T15:53:51.476Z,18.60
2019-02-24T15:56:18.288Z,18.80
2019-02-24T15:58:45.562Z,18.60
2019-02-24T16:01:12.232Z,18.10
2019-02-24T16:03:38.964Z,17.40
2019-02-24T16:06:05.548Z,16.90
2019-02-24T16:08:32.156Z,16.90
2019-02-24T16:11:00.564Z,16.40
2019-02-24T16:13:28.794Z,16.40
2019-02-24T16:15:55.925Z,15.90
2019-02-24T16:18:24.177Z,15.30
2019-02-24T16:20:50.729Z,14.80
2019-02-24T16:23:18.676Z,14.30
2019-02-24T16:25:45.244Z,14.10
2019-02-24T16:28:11.919Z,13.70
2019-02-24T16:30:38.593Z,13.60
2019-02-24T16:33:10.683Z,13.30
2019-02-24T16:35:34.608Z,13.00
2019-02-24T16:38:01.450Z,12.70
2019-02-24T16:40:28.103Z,12.50
2019-02-24T16:42:54.735Z,12.40
2019-02-24T16:45:22.203Z,12.50
2019-02-24T16:47:48.857Z,12.60
2019-02-24T16:50:19.929Z,12.30
2019-02-24T16:52:46.611Z,12.40
2019-02-24T16:55:14.633Z,12.40
2019-02-24T16:57:41.163Z,12.30
2019-02-24T17:00:14.297Z,12.00
2019-02-24T17:02:40.799Z,12.10
2019-02-24T17:05:07.885Z,11.90
2019-02-24T17:07:35.001Z,11.60
2019-02-24T17:10:03.669Z,11.40
2019-02-24T17:12:30.189Z,11.40
2019-02-24T17:14:56.766Z,11.50
2019-02-24T17:17:23.528Z,11.60
2019-02-24T17:19:50.055Z,11.50
2019-02-24T17:22:16.729Z,11.60
2019-02-24T17:24:43.356Z,11.40
2019-02-24T17:27:09.933Z,11.10
2019-02-24T17:29:36.572Z,10.90
2019-02-24T17:32:04.183Z,10.50
2019-02-24T17:34:30.782Z,10.60
2019-02-24T17:36:57.458Z,10.70
2019-02-24T17:39:23.987Z,10.50
2019-02-24T17:41:50.553Z,10.60
2019-02-24T17:44:17.186Z,10.30
2019-02-24T17:46:43.859Z,10.40
2019-02-24T17:49:10.522Z,10.40
2019-02-24T17:51:37.044Z,10.50
2019-02-24T17:54:04.746Z,10.50
2019-02-24T17:56:31.377Z,10.40
2019-02-24T17:58:57.942Z,10.30
2019-02-24T18:01:24.610Z,10.30
2019-02-24T18:03:51.343Z,10.40
2019-02-24T18:06:18.031Z,10.30
2019-02-24T18:08:44.701Z,10.10
2019-02-24T18:11:11.434Z,10.10
2019-02-24T18:13:37.955Z,10.10
2019-02-24T18:16:04.536Z,10.00
2019-02-24T18:18:31.165Z,10.10
2019-02-24T18:20:57.858Z,10.00
2019-02-24T18:23:24.416Z,10.10
2019-02-24T18:25:50.980Z,10.10
2019-02-24T18:28:17.940Z,10.10
2019-02-24T18:30:44.621Z,9.90
2019-02-24T18:33:11.250Z,9.50
2019-02-24T18:35:38.176Z,9.20
2019-02-24T18:38:04.701Z,8.90
2019-02-24T18:40:31.370Z,8.70
2019-02-24T18:43:00.466Z,8.50
2019-02-24T18:45:26.704Z,8.30
2019-02-24T18:47:53.364Z,8.20
2019-02-24T18:50:19.995Z,8.00
2019-02-24T18:52:46.677Z,8.00
2019-02-24T18:55:13.507Z,8.00
2019-02-24T18:57:40.394Z,8.10
2019-02-24T19:00:17.982Z,8.20
2019-02-24T19:02:44.586Z,8.50
2019-02-24T19:05:11.471Z,8.80
2019-02-24T19:07:38.080Z,8.90
2019-02-24T19:10:08.645Z,9.30
2019-02-24T19:12:35.209Z,9.40
2019-02-24T19:15:01.781Z,9.20
2019-02-24T19:17:28.585Z,9.20
2019-02-24T19:19:55.601Z,9.10
2019-02-24T19:22:22.303Z,8.90
2019-02-24T19:24:48.930Z,9.00
2019-02-24T19:27:15.571Z,9.00
2019-02-24T19:29:42.464Z,8.80
2019-02-24T19:32:09.187Z,8.90
2019-02-24T19:34:35.761Z,9.10
2019-02-24T19:37:02.292Z,9.10
2019-02-24T19:39:28.892Z,9.30
2019-02-24T19:41:55.425Z,9.40
2019-02-24T19:44:21.986Z,9.30
2019-02-24T19:46:49.129Z,9.30
2019-02-24T19:49:16.263Z,9.20
2019-02-24T19:51:42.840Z,9.10
2019-02-24T19:54:09.369Z,9.20
2019-02-24T19:56:35.986Z,9.20
2019-02-24T19:59:03.467Z,9.00
2019-02-24T20:01:30.274Z,9.00
2019-02-24T20:03:56.747Z,9.20
2019-02-24T20:06:23.289Z,9.10
2019-02-24T20:08:51.102Z,9.10
2019-02-24T20:11:18.527Z,9.30
2019-02-24T20:13:45.166Z,9.20
2019-02-24T20:16:11.810Z,9.10
2019-02-24T20:18:44.738Z,9.00
2019-02-24T20:21:11.585Z,8.70
2019-02-24T20:23:38.732Z,8.60
2019-02-24T20:26:05.299Z,8.60
2019-02-24T20:28:31.817Z,8.50
2019-02-24T20:30:58.473Z,8.40
2019-02-24T20:33:25.141Z,8.40
2019-02-24T20:35:51.838Z,8.60
2019-02-24T20:38:18.680Z,8.70
2019-02-24T20:40:45.242Z,8.20
2019-02-24T20:43:12.149Z,7.90
2019-02-24T20:45:39.891Z,7.90
2019-02-24T20:48:06.760Z,7.80
2019-02-24T20:50:34.093Z,7.90
2019-02-24T20:53:01.661Z,7.80
2019-02-24T20:55:28.414Z,7.70
2019-02-24T20:57:55.643Z,7.70
2019-02-24T21:00:24.882Z,7.70
2019-02-24T21:02:51.507Z,7.70
2019-02-24T21:05:18.169Z,7.70
2019-02-24T21:07:44.909Z,7.80
2019-02-24T21:10:11.785Z,7.70
2019-02-24T21:12:38.445Z,7.70
2019-02-24T21:15:09.107Z,7.70
2019-02-24T21:17:35.730Z,7.80
2019-02-24T21:20:06.570Z,7.70
2019-02-24T21:22:33.511Z,7.80
2019-02-24T21:25:00.008Z,7.70
2019-02-24T21:27:26.578Z,7.40
2019-02-24T21:29:53.192Z,7.20
2019-02-24T21:32:19.900Z,7.10
2019-02-24T21:34:46.625Z,7.20
2019-02-24T21:37:13.191Z,7.40
2019-02-24T21:39:39.819Z,7.40
2019-02-24T21:42:06.435Z,7.60
2019-02-24T21:44:33.080Z,7.80
2019-02-24T21:46:59.882Z,7.70
2019-02-24T21:49:26.402Z,7.20
2019-02-24T21:51:52.936Z,6.90
2019-02-24T21:54:19.661Z,7.00
2019-02-24T21:56:47.446Z,7.00
2019-02-24T21:59:14.064Z,6.90
2019-02-24T22:01:40.595Z,6.80
2019-02-24T22:04:07.297Z,6.70
2019-02-24T22:06:33.803Z,6.70
2019-02-24T22:09:00.370Z,6.70
2019-02-24T22:11:26.892Z,6.70
2019-02-24T22:13:53.487Z,6.80
2019-02-24T22:16:20.013Z,6.90
2019-02-24T22:18:46.485Z,6.90
2019-02-24T22:21:13.004Z,7.00
2019-02-24T22:23:39.596Z,6.90
2019-02-24T22:26:06.321Z,6.80
2019-02-24T22:28:33.093Z,6.80
2019-02-24T22:31:00.717Z,6.70
2019-02-24T22:33:27.372Z,6.70
2019-02-24T22:35:54.933Z,6.50
2019-02-24T22:38:21.720Z,6.40
2019-02-24T22:40:54.437Z,6.40
2019-02-24T22:43:16.776Z,6.40
2019-02-24T22:45:43.343Z,6.50
2019-02-24T22:48:10.075Z,6.40
2019-02-24T22:50:36.723Z,6.30
2019-02-24T22:53:03.257Z,6.20
2019-02-24T22:55:30.179Z,6.20
2019-02-24T22:57:56.746Z,6.20
2019-02-24T23:00:52.800Z,6.00
2019-02-24T23:03:20.968Z,5.70
2019-02-24T23:05:47.497Z,5.40
2019-02-24T23:08:15.869Z,5.50
2019-02-24T23:10:42.489Z,5.50
2019-02-24T23:13:10.871Z,5.40
2019-02-24T23:15:38.566Z,5.10
2019-02-24T23:18:05.304Z,5.10
2019-02-24T23:20:31.990Z,5.40
2019-02-24T23:22:59.036Z,5.50
2019-02-24T23:25:26.164Z,5.50
2019-02-24T23:27:52.865Z,5.40
2019-02-24T23:30:20.073Z,5.40
2019-02-24T23:32:47.231Z,5.10
2019-02-24T23:35:14.056Z,5.00
2019-02-24T23:37:40.604Z,5.10
2019-02-24T23:40:07.728Z,5.20
2019-02-24T23:42:34.480Z,5.10
2019-02-24T23:45:09.897Z,4.60
2019-02-24T23:47:29.643Z,4.20
2019-02-24T23:49:56.272Z,4.20
2019-02-24T23:52:22.919Z,4.20
2019-02-24T23:54:49.607Z,4.00
2019-02-24T23:57:16.360Z,3.80
2019-02-24T23:59:43.090Z,3.90
